Aeroporto :
LOGIN :

Iscrizione | Disclaimer

   EN    FR    IT 

 










Sommario :    VFR   VFR Marginale   IFR   IFR Intensivo   IFR Molto Intensivo
Visibilità : 
Base nubi : 
>= 8 km
>= 3000ft
5 / 8 km
1000 / 3000 ft
1500m / 5 km
500 / 1000 ft
800 / 1500m
200 / 500 ft
< 800m
< 200 ft
Simboli :   Temporali  Nebbia  Neve Forte  Precipitazioni Forti  Vento > 20 kt
SIGMETs :   Varie  Temporali  Ghiacco  Turbolenza  Onda orograficha  Ceneri Vulcaniche






- Altitudine del aeroporto : 160 ft
- Codice IATA : LRT


LFRH - Lorient Lann Bihoue

ULTIMO METAR :
  • 290930Z AUTO 04028G42KT 9999 BKN041 07/M02 Q1030 BECMG 04020G30KT

METARs OBSOLETI :
  • 290900Z AUTO 05026G37KT 9999 FEW025 BKN041 07/00 Q1030 NOSIG
  • 290830Z AUTO 04024KT 9999 SCT027 BKN034 BKN041 07/02 Q1030 TEMPO 05020G40KT
  • 290800Z AUTO 05024G35KT 9999 BKN030 07/01 Q1029 NOSIG
  • 290730Z AUTO 05024G34KT 9999 FEW031 07/01 Q1029 NOSIG
  • 290700Z AUTO 05023G33KT 9999 FEW022 SCT028 06/01 Q1029 NOSIG

TAF TAF LFRH
Valido dal 29 a 06 ore il 30 a 06 ore UTC


290500Z 2906/3006 04020G30KT 9999 SCT030
TEMPO 2906/2911 05020G40KT
TEMPO 2916/2921 05020G40KT
BECMG 3000/3002 RA BKN013
BECMG 3004/3006 05016KT SCT025



MetMap, La meteo Aeronautica in un colpo d'occhio ! - Copyright ORBIFLY Dicembre 2007 - Disclaimer

ORBIFLY MET'MAP TEAM :

Programmazione e sviluppo : Alexandra Zaïnal
Concezione : Baudouin d'Aumeries
Aiuto per la programmazione : Marc-Olivier Méhu
Supporto tecnico e logistico : Manuel Goepfert
Aiuto per la traduzione : Arnaldo La Scala

Contatto : metmap@orbifly.com




FONTI E CREDITI :

   NOAA